createdAt,value
2022-08-07T00:01:44.040Z,100565.19
2022-08-07T00:04:09.706Z,100559.53
2022-08-07T00:06:40.966Z,100554.19
2022-08-07T00:09:21.253Z,100570.91
2022-08-07T00:11:55.428Z,100582.22
2022-08-07T00:14:25.210Z,100570.75
2022-08-07T00:16:52.758Z,100567.88
2022-08-07T00:19:21.615Z,100574.16
2022-08-07T00:21:55.970Z,100574.50
2022-08-07T00:24:28.762Z,100564.50
2022-08-07T00:27:07.243Z,100570.47
2022-08-07T00:29:37.034Z,100578.38
2022-08-07T00:32:06.920Z,100571.12
2022-08-07T00:34:35.531Z,100569.25
2022-08-07T00:37:04.948Z,100579.06
2022-08-07T00:39:33.206Z,100582.56
2022-08-07T00:42:04.881Z,100575.25
2022-08-07T00:44:33.256Z,100573.94
2022-08-07T00:47:01.641Z,100580.38
2022-08-07T00:50:20.040Z,100573.97
2022-08-07T00:52:17.639Z,100577.53
2022-08-07T00:54:53.566Z,100571.38
2022-08-07T00:57:25.946Z,100572.06
2022-08-07T00:59:53.594Z,100574.47
2022-08-07T01:02:28.392Z,100571.28
2022-08-07T01:04:58.680Z,100577.47
2022-08-07T01:07:28.023Z,100568.41
2022-08-07T01:10:06.537Z,100569.84
2022-08-07T01:12:53.078Z,100566.28
2022-08-07T01:15:20.527Z,100566.66
2022-08-07T01:17:47.549Z,100571.22
2022-08-07T01:20:17.289Z,100569.25
2022-08-07T01:22:54.104Z,100567.34
2022-08-07T01:25:54.154Z,100571.91
2022-08-07T01:28:19.341Z,100569.47
2022-08-07T01:30:47.200Z,100565.44
2022-08-07T01:33:18.359Z,100561.75
2022-08-07T01:35:54.071Z,100569.09
2022-08-07T01:38:25.643Z,100570.34
2022-08-07T01:40:55.466Z,100569.37
2022-08-07T01:43:26.063Z,100570.84
2022-08-07T01:45:54.344Z,100569.88
2022-08-07T01:48:30.198Z,100571.41
2022-08-07T01:51:24.606Z,100574.88
2022-08-07T01:54:08.952Z,100571.41
2022-08-07T01:56:59.215Z,100574.69
2022-08-07T01:59:30.968Z,100568.59
2022-08-07T02:02:06.312Z,100573.16
2022-08-07T02:04:56.253Z,100569.37
2022-08-07T02:07:44.754Z,100572.28
2022-08-07T02:10:18.540Z,100563.19
2022-08-07T02:12:50.199Z,100575.41
2022-08-07T02:15:23.234Z,100573.59
2022-08-07T02:17:55.013Z,100575.47
2022-08-07T02:20:24.742Z,100574.41
2022-08-07T02:23:02.637Z,100579.34
2022-08-07T02:26:31.115Z,100579.72
2022-08-07T02:28:24.681Z,100579.03
2022-08-07T02:30:55.390Z,100586.16
2022-08-07T02:33:41.949Z,100583.56
2022-08-07T02:36:29.456Z,100585.97
2022-08-07T02:39:02.729Z,100596.31
2022-08-07T02:41:47.352Z,100592.47
2022-08-07T02:44:26.779Z,100594.88
2022-08-07T02:46:58.305Z,100594.19
2022-08-07T02:49:57.876Z,100598.25
2022-08-07T02:52:32.097Z,100596.22
2022-08-07T02:55:04.436Z,100598.78
2022-08-07T02:57:35.197Z,100601.31
2022-08-07T03:00:11.106Z,100599.78
2022-08-07T03:02:54.561Z,100596.91
2022-08-07T03:05:24.585Z,100602.00
2022-08-07T03:08:07.371Z,100597.56
2022-08-07T03:10:40.673Z,100600.56
2022-08-07T03:13:19.355Z,100599.25
2022-08-07T03:15:56.510Z,100606.66
2022-08-07T03:18:34.602Z,100606.72
2022-08-07T03:21:08.837Z,100602.41
2022-08-07T03:24:17.970Z,100609.25
2022-08-07T03:26:32.513Z,100600.72
2022-08-07T03:29:02.425Z,100604.28
2022-08-07T03:31:42.422Z,100610.37
2022-08-07T03:34:18.739Z,100599.75
2022-08-07T03:36:53.046Z,100602.06
2022-08-07T03:40:00.089Z,100608.31
2022-08-07T03:42:10.339Z,100611.13
2022-08-07T03:44:38.823Z,100618.56
2022-08-07T03:47:13.144Z,100615.56
2022-08-07T03:49:48.022Z,100614.59
2022-08-07T03:52:26.614Z,100617.28
2022-08-07T03:55:06.048Z,100618.16
2022-08-07T03:58:34.773Z,100618.16
2022-08-07T04:00:29.272Z,100628.50
2022-08-07T04:03:04.282Z,100635.44
2022-08-07T04:05:41.072Z,100642.19
2022-08-07T04:08:16.191Z,100647.31
2022-08-07T04:10:54.353Z,100652.72
2022-08-07T04:14:09.369Z,100644.72
2022-08-07T04:16:31.093Z,100646.53
2022-08-07T04:19:12.257Z,100650.19
2022-08-07T04:21:59.538Z,100645.59
2022-08-07T04:24:33.728Z,100654.06
2022-08-07T04:27:03.110Z,100653.50
2022-08-07T04:29:57.161Z,100658.63
2022-08-07T04:32:18.511Z,100663.06
2022-08-07T04:35:03.938Z,100658.13
2022-08-07T04:37:52.909Z,100664.75
2022-08-07T04:40:21.103Z,100658.59
2022-08-07T04:42:52.352Z,100667.37
2022-08-07T04:45:44.470Z,100665.84
2022-08-07T04:48:17.066Z,100671.63
2022-08-07T04:51:12.667Z,100673.19
2022-08-07T04:54:01.600Z,100675.06
2022-08-07T04:58:10.968Z,100679.31
2022-08-07T05:00:13.130Z,100687.91
2022-08-07T05:03:00.687Z,100682.38
2022-08-07T05:05:53.057Z,100681.44
2022-08-07T05:09:00.005Z,100687.44
2022-08-07T05:11:27.873Z,100690.41
2022-08-07T05:14:56.445Z,100690.16
2022-08-07T05:17:52.344Z,100695.06
2022-08-07T05:20:23.890Z,100696.00
2022-08-07T05:22:54.936Z,100704.97
2022-08-07T05:25:26.114Z,100703.44
2022-08-07T05:28:20.221Z,100708.09
2022-08-07T05:30:52.115Z,100711.28
2022-08-07T05:33:20.907Z,100700.00
2022-08-07T05:35:51.613Z,100705.94
2022-08-07T05:39:00.420Z,100703.25
2022-08-07T05:41:14.457Z,100701.41
2022-08-07T05:44:08.786Z,100700.97
2022-08-07T05:46:36.364Z,100706.12
2022-08-07T05:49:12.126Z,100711.91
2022-08-07T05:51:42.787Z,100716.62
2022-08-07T05:54:29.815Z,100712.56
2022-08-07T05:56:58.886Z,100717.75
2022-08-07T05:59:27.977Z,100718.09
2022-08-07T06:01:58.327Z,100722.03
2022-08-07T06:04:30.296Z,100721.22
2022-08-07T06:07:03.929Z,100718.25
2022-08-07T06:09:44.872Z,100720.50
2022-08-07T06:12:20.910Z,100716.47
2022-08-07T06:14:49.556Z,100711.81
2022-08-07T06:17:19.421Z,100719.63
2022-08-07T06:20:03.482Z,100723.00
2022-08-07T06:22:36.895Z,100716.50
2022-08-07T06:25:06.707Z,100722.53
2022-08-07T06:27:44.037Z,100722.06
2022-08-07T06:30:35.755Z,100713.72
2022-08-07T06:33:05.728Z,100716.22
2022-08-07T06:35:47.610Z,100729.91
2022-08-07T06:38:19.926Z,100729.81
2022-08-07T06:40:51.269Z,100732.75
2022-08-07T06:43:23.589Z,100734.12
2022-08-07T06:45:50.901Z,100734.34
2022-08-07T06:48:25.034Z,100733.91
2022-08-07T06:50:54.881Z,100735.94
2022-08-07T06:55:30.084Z,100730.97
2022-08-07T06:56:15.111Z,100737.78
2022-08-07T07:00:14.716Z,100740.72
2022-08-07T07:01:44.042Z,100731.84
2022-08-07T07:04:32.757Z,100737.03
2022-08-07T07:07:02.351Z,100732.25
2022-08-07T07:09:38.302Z,100731.19
2022-08-07T07:12:08.414Z,100737.47
2022-08-07T07:14:58.309Z,100743.13
2022-08-07T07:17:38.870Z,100737.50
2022-08-07T07:20:12.001Z,100745.13
2022-08-07T07:24:05.957Z,100737.12
2022-08-07T07:26:35.471Z,100730.16
2022-08-07T07:28:29.625Z,100731.59
2022-08-07T07:31:44.694Z,100742.66
2022-08-07T07:34:19.929Z,100735.91
2022-08-07T07:36:52.654Z,100738.41
2022-08-07T07:39:25.698Z,100742.84
2022-08-07T07:42:13.300Z,100752.28
2022-08-07T07:44:44.633Z,100737.81
2022-08-07T07:47:23.706Z,100744.06
2022-08-07T07:50:34.080Z,100743.72
2022-08-07T07:52:54.994Z,100744.47
2022-08-07T07:55:23.066Z,100746.59
2022-08-07T07:57:53.996Z,100736.75
2022-08-07T08:00:29.417Z,100743.50
2022-08-07T08:03:05.454Z,100746.56
2022-08-07T08:05:54.253Z,100751.63
2022-08-07T08:08:34.654Z,100747.53
2022-08-07T08:11:09.245Z,100743.62
2022-08-07T08:13:53.951Z,100741.87
2022-08-07T08:16:26.370Z,100742.41
2022-08-07T08:19:00.492Z,100740.75
2022-08-07T08:22:07.858Z,100737.78
2022-08-07T08:25:18.326Z,100737.81
2022-08-07T08:27:57.114Z,100736.66
2022-08-07T08:30:29.753Z,100734.88
2022-08-07T08:33:03.017Z,100732.13
2022-08-07T08:35:39.318Z,100738.13
2022-08-07T08:38:18.031Z,100733.66
2022-08-07T08:40:54.952Z,100731.50
2022-08-07T08:43:42.994Z,100728.53
2022-08-07T08:46:59.147Z,100736.91
2022-08-07T08:49:46.116Z,100728.19
2022-08-07T08:52:22.451Z,100721.84
2022-08-07T08:54:58.303Z,100717.81
2022-08-07T08:58:08.681Z,100729.03
2022-08-07T09:00:48.633Z,100724.78
2022-08-07T09:04:04.096Z,100733.44
2022-08-07T09:06:56.386Z,100721.50
2022-08-07T09:09:56.757Z,100720.03
2022-08-07T09:12:42.405Z,100713.03
2022-08-07T09:16:25.604Z,100719.38
2022-08-07T09:18:33.578Z,100712.69
2022-08-07T09:21:06.284Z,100717.19
2022-08-07T09:24:32.115Z,100706.31
2022-08-07T09:27:09.001Z,100710.16
2022-08-07T09:30:04.534Z,100703.12
2022-08-07T09:32:43.221Z,100702.28
2022-08-07T09:36:03.454Z,100701.84
2022-08-07T09:38:19.968Z,100698.81
2022-08-07T09:41:00.357Z,100696.19
2022-08-07T09:44:06.915Z,100714.94
2022-08-07T09:47:55.513Z,100695.38
2022-08-07T09:50:21.297Z,100698.16
2022-08-07T09:52:53.728Z,100691.06
2022-08-07T09:56:03.959Z,100688.56
2022-08-07T09:58:33.172Z,100693.81
2022-08-07T10:01:00.755Z,100689.84
2022-08-07T10:04:05.496Z,100683.50
2022-08-07T10:06:38.042Z,100694.63
2022-08-07T10:09:10.944Z,100682.16
2022-08-07T10:12:01.940Z,100672.28
2022-08-07T10:15:05.373Z,100673.16
2022-08-07T10:18:03.075Z,100669.41
2022-08-07T10:20:39.450Z,100662.06
2022-08-07T10:24:04.972Z,100667.47
2022-08-07T10:26:53.084Z,100668.03
2022-08-07T10:29:58.621Z,100669.56
2022-08-07T10:32:53.124Z,100666.53
2022-08-07T10:35:55.567Z,100667.69
2022-08-07T10:38:48.038Z,100664.72
2022-08-07T10:41:51.839Z,100663.56
2022-08-07T10:44:45.669Z,100663.50
2022-08-07T10:47:27.151Z,100662.56
2022-08-07T10:50:19.161Z,100645.91
2022-08-07T10:53:13.136Z,100635.91
2022-08-07T10:56:02.240Z,100645.75
2022-08-07T10:59:00.110Z,100640.66
2022-08-07T11:01:51.988Z,100642.62
2022-08-07T11:04:45.600Z,100629.91
2022-08-07T11:07:58.582Z,100625.62
2022-08-07T11:10:49.974Z,100625.34
2022-08-07T11:14:42.618Z,100621.47
2022-08-07T11:16:29.834Z,100616.16
2022-08-07T11:19:21.729Z,100607.19
2022-08-07T11:22:27.354Z,100613.00
2022-08-07T11:25:30.600Z,100607.16
2022-08-07T11:28:19.417Z,100608.53
2022-08-07T11:31:08.728Z,100602.19
2022-08-07T11:33:58.442Z,100605.50
2022-08-07T11:36:50.105Z,100601.97
2022-08-07T11:39:59.535Z,100590.31
2022-08-07T11:42:52.089Z,100594.16
2022-08-07T11:45:49.828Z,100599.06
2022-08-07T11:49:50.777Z,100589.91
2022-08-07T11:52:04.164Z,100587.09
2022-08-07T11:54:36.206Z,100584.12
2022-08-07T11:57:52.389Z,100585.81
2022-08-07T12:00:40.657Z,100588.25
2022-08-07T12:03:44.735Z,100573.53
2022-08-07T12:06:39.808Z,100564.22
2022-08-07T12:09:35.255Z,100573.59
2022-08-07T12:12:11.165Z,100572.31
2022-08-07T12:15:08.193Z,100574.75
2022-08-07T12:18:08.036Z,100564.88
2022-08-07T12:21:15.034Z,100564.53
2022-08-07T12:24:07.707Z,100562.81
2022-08-07T12:26:53.516Z,100559.19
2022-08-07T12:29:37.812Z,100564.88
2022-08-07T12:32:23.406Z,100557.88
2022-08-07T12:34:55.926Z,100553.56
2022-08-07T12:37:28.511Z,100548.78
2022-08-07T12:40:36.164Z,100545.16
2022-08-07T12:43:09.346Z,100542.88
2022-08-07T12:45:55.302Z,100532.59
2022-08-07T12:48:41.462Z,100530.50
2022-08-07T12:51:24.065Z,100527.22
2022-08-07T12:54:41.367Z,100532.63
2022-08-07T12:57:10.993Z,100529.25
2022-08-07T12:59:55.467Z,100524.28
2022-08-07T13:02:49.435Z,100526.78
2022-08-07T13:06:02.787Z,100521.78
2022-08-07T13:08:41.368Z,100520.59
2022-08-07T13:12:02.099Z,100515.88
2022-08-07T13:14:38.494Z,100510.91
2022-08-07T13:17:39.696Z,100513.62
2022-08-07T13:20:37.433Z,100507.56
2022-08-07T13:24:02.118Z,100506.66
2022-08-07T13:26:05.534Z,100517.41
2022-08-07T13:28:44.174Z,100505.97
2022-08-07T13:31:55.200Z,100510.47
2022-08-07T13:34:44.678Z,100502.44
2022-08-07T13:37:30.388Z,100500.84
2022-08-07T13:40:42.310Z,100495.91
2022-08-07T13:43:11.869Z,100496.19
2022-08-07T13:46:11.712Z,100498.22
2022-08-07T13:48:34.588Z,100497.91
2022-08-07T13:51:27.590Z,100493.53
2022-08-07T13:54:00.579Z,100483.84
2022-08-07T13:56:35.913Z,100479.31
2022-08-07T13:59:27.163Z,100483.59
2022-08-07T14:02:08.644Z,100477.94
2022-08-07T14:05:04.483Z,100476.72
2022-08-07T14:07:34.061Z,100467.66
2022-08-07T14:10:21.735Z,100462.25
2022-08-07T14:12:58.679Z,100466.72
2022-08-07T14:15:41.959Z,100467.13
2022-08-07T14:18:37.093Z,100461.66
2022-08-07T14:21:20.838Z,100462.88
2022-08-07T14:24:06.445Z,100452.88
2022-08-07T14:26:50.470Z,100458.88
2022-08-07T14:30:02.829Z,100465.44
2022-08-07T14:32:13.046Z,100451.25
2022-08-07T14:34:45.888Z,100450.81
2022-08-07T14:37:16.384Z,100451.59
2022-08-07T14:40:17.945Z,100451.22
2022-08-07T14:43:55.791Z,100446.50
2022-08-07T14:45:46.766Z,100445.69
2022-08-07T14:48:20.147Z,100437.13
2022-08-07T14:50:53.291Z,100442.16
2022-08-07T14:54:03.573Z,100437.47
2022-08-07T14:56:14.076Z,100440.41
2022-08-07T14:58:45.369Z,100439.88
2022-08-07T15:01:22.475Z,100431.19
2022-08-07T15:03:52.438Z,100434.31
2022-08-07T15:06:25.540Z,100425.56
2022-08-07T15:08:54.905Z,100426.22
2022-08-07T15:11:53.863Z,100420.88
2022-08-07T15:14:30.360Z,100425.09
2022-08-07T15:17:01.152Z,100424.00
2022-08-07T15:20:30.799Z,100419.94
2022-08-07T15:25:19.615Z,100403.50
2022-08-07T15:31:04.722Z,100413.81
2022-08-07T15:33:33.902Z,100407.19
2022-08-07T15:36:07.809Z,100406.16
2022-08-07T15:38:58.753Z,100400.72
2022-08-07T15:42:46.597Z,100402.16
2022-08-07T15:44:18.896Z,100388.94
2022-08-07T15:46:52.715Z,100398.25
2022-08-07T15:50:05.154Z,100406.34
2022-08-07T15:52:30.397Z,100397.63
2022-08-07T15:55:02.956Z,100398.81
2022-08-07T15:57:47.644Z,100399.94
2022-08-07T16:00:33.437Z,100398.03
2022-08-07T16:03:21.436Z,100398.66
2022-08-07T16:05:51.071Z,100405.75
2022-08-07T16:08:31.348Z,100391.31
2022-08-07T16:11:26.522Z,100399.94
2022-08-07T16:14:09.405Z,100392.53
2022-08-07T16:18:01.274Z,100396.47
2022-08-07T16:20:56.833Z,100400.69
2022-08-07T16:23:53.737Z,100402.47
2022-08-07T16:26:30.736Z,100400.72
2022-08-07T16:30:10.183Z,100400.41
2022-08-07T16:32:34.421Z,100405.94
2022-08-07T16:35:58.527Z,100407.28
2022-08-07T16:39:06.108Z,100405.59
2022-08-07T16:41:54.422Z,100402.66
2022-08-07T16:45:14.025Z,100404.50
2022-08-07T16:47:51.450Z,100405.69
2022-08-07T16:51:07.372Z,100404.78
2022-08-07T16:54:01.129Z,100406.34
2022-08-07T16:57:01.164Z,100402.44
2022-08-07T16:59:46.909Z,100394.50
2022-08-07T17:03:04.908Z,100404.19
2022-08-07T17:06:19.186Z,100406.41
2022-08-07T17:09:08.641Z,100404.41
2022-08-07T17:12:04.814Z,100411.88
2022-08-07T17:14:41.540Z,100416.84
2022-08-07T17:17:46.001Z,100413.78
2022-08-07T17:20:30.076Z,100413.00
2022-08-07T17:23:22.990Z,100414.81
2022-08-07T17:26:23.253Z,100416.53
2022-08-07T17:29:06.378Z,100419.97
2022-08-07T17:32:02.474Z,100415.72
2022-08-07T17:35:32.781Z,100409.69
2022-08-07T17:38:05.692Z,100420.53
2022-08-07T17:40:44.265Z,100421.09
2022-08-07T17:44:00.903Z,100421.66
2022-08-07T17:46:40.559Z,100425.19
2022-08-07T17:49:26.053Z,100425.50
2022-08-07T17:52:05.206Z,100431.25
2022-08-07T17:54:53.741Z,100429.56
2022-08-07T17:57:58.652Z,100426.81
2022-08-07T18:00:34.402Z,100427.53
2022-08-07T18:03:25.369Z,100430.56
2022-08-07T18:06:02.090Z,100434.75
2022-08-07T18:09:00.705Z,100433.72
2022-08-07T18:12:19.375Z,100444.50
2022-08-07T18:14:50.124Z,100451.38
2022-08-07T18:18:47.500Z,100455.97
2022-08-07T18:21:09.769Z,100459.00
2022-08-07T18:23:43.080Z,100457.72
2022-08-07T18:26:19.114Z,100460.28
2022-08-07T18:30:06.129Z,100463.19
2022-08-07T18:32:16.770Z,100474.69
2022-08-07T18:35:02.568Z,100473.22
2022-08-07T18:38:54.814Z,100473.50
2022-08-07T18:41:07.902Z,100481.97
2022-08-07T18:44:12.401Z,100473.06
2022-08-07T18:47:05.463Z,100482.81
2022-08-07T18:50:31.270Z,100479.22
2022-08-07T18:53:36.949Z,100490.97
2022-08-07T18:56:30.660Z,100487.66
2022-08-07T18:59:47.134Z,100490.31
2022-08-07T19:02:32.280Z,100492.47
2022-08-07T19:05:27.099Z,100489.53
2022-08-07T19:09:09.275Z,100500.28
2022-08-07T19:12:08.600Z,100499.03
2022-08-07T19:14:51.129Z,100501.37
2022-08-07T19:17:58.854Z,100501.63
2022-08-07T19:20:29.892Z,100509.62
2022-08-07T19:23:19.414Z,100500.59
2022-08-07T19:26:25.068Z,100520.69
2022-08-07T19:31:05.119Z,100524.31
2022-08-07T19:32:07.731Z,100530.41
2022-08-07T19:34:40.990Z,100526.38
2022-08-07T19:37:18.105Z,100544.44
2022-08-07T19:39:57.644Z,100553.09
2022-08-07T19:42:40.562Z,100552.37
2022-08-07T19:46:05.750Z,100563.28
2022-08-07T19:48:18.463Z,100543.94
2022-08-07T19:50:53.225Z,100564.59
2022-08-07T19:54:44.664Z,100566.47
2022-08-07T19:58:01.509Z,100555.13
2022-08-07T19:59:02.697Z,100564.00
2022-08-07T20:01:52.658Z,100561.41
2022-08-07T20:04:30.933Z,100571.78
2022-08-07T20:06:59.097Z,100572.00
2022-08-07T20:10:33.488Z,100576.34
2022-08-07T20:12:32.209Z,100573.31
2022-08-07T20:15:09.564Z,100579.13
2022-08-07T20:17:44.516Z,100577.25
2022-08-07T20:20:30.170Z,100578.09
2022-08-07T20:23:23.131Z,100585.22
2022-08-07T20:25:52.902Z,100593.75
2022-08-07T20:28:21.051Z,100592.63
2022-08-07T20:30:59.218Z,100593.41
2022-08-07T20:33:37.595Z,100598.41
2022-08-07T20:36:08.315Z,100595.97
2022-08-07T20:39:00.038Z,100608.47
2022-08-07T20:41:28.594Z,100608.28
2022-08-07T20:44:02.836Z,100607.47
2022-08-07T20:46:37.128Z,100606.47
2022-08-07T20:49:59.193Z,100606.91
2022-08-07T20:52:01.444Z,100601.19
2022-08-07T20:54:30.073Z,100601.19
2022-08-07T20:57:08.373Z,100607.25
2022-08-07T21:00:07.543Z,100612.34
2022-08-07T21:02:54.217Z,100612.25
2022-08-07T21:05:51.342Z,100614.00
2022-08-07T21:08:16.559Z,100608.47
2022-08-07T21:10:50.829Z,100616.59
2022-08-07T21:13:24.760Z,100618.00
2022-08-07T21:16:11.280Z,100620.63
2022-08-07T21:18:40.539Z,100627.88
2022-08-07T21:21:09.469Z,100626.34
2022-08-07T21:23:50.260Z,100625.78
2022-08-07T21:27:16.398Z,100627.56
2022-08-07T21:29:53.010Z,100640.91
2022-08-07T21:32:47.800Z,100644.00
2022-08-07T21:35:17.531Z,100640.75
2022-08-07T21:38:18.902Z,100646.84
2022-08-07T21:41:09.599Z,100640.66
2022-08-07T21:44:03.742Z,100647.59
2022-08-07T21:47:12.283Z,100642.69
2022-08-07T21:50:03.638Z,100640.97
2022-08-07T21:52:42.459Z,100646.13
2022-08-07T21:55:28.309Z,100644.50
2022-08-07T21:58:06.791Z,100659.50
2022-08-07T22:00:35.557Z,100656.69
2022-08-07T22:03:30.710Z,100654.56
2022-08-07T22:06:07.644Z,100654.91
2022-08-07T22:09:02.856Z,100650.06
2022-08-07T22:12:05.325Z,100658.16
2022-08-07T22:14:36.236Z,100662.69
2022-08-07T22:17:05.036Z,100670.63
2022-08-07T22:20:23.646Z,100673.19
2022-08-07T22:23:01.709Z,100672.91
2022-08-07T22:25:37.050Z,100673.38
2022-08-07T22:28:31.622Z,100670.78
2022-08-07T22:31:06.735Z,100666.75
2022-08-07T22:33:55.949Z,100671.09
2022-08-07T22:36:38.491Z,100675.34
2022-08-07T22:39:16.998Z,100672.28
2022-08-07T22:42:04.023Z,100675.09
2022-08-07T22:44:41.497Z,100662.62
2022-08-07T22:47:45.594Z,100677.37
2022-08-07T22:50:36.320Z,100675.81
2022-08-07T22:54:07.422Z,100683.00
2022-08-07T22:56:30.517Z,100682.19
2022-08-07T22:59:20.220Z,100679.59
2022-08-07T23:02:00.439Z,100683.63
2022-08-07T23:04:57.828Z,100682.13
2022-08-07T23:08:24.443Z,100696.25
2022-08-07T23:11:13.324Z,100702.50
2022-08-07T23:14:16.010Z,100705.37
2022-08-07T23:17:27.443Z,100703.91
2022-08-07T23:20:52.346Z,100701.47
2022-08-07T23:24:06.043Z,100701.41
2022-08-07T23:26:26.201Z,100699.69
2022-08-07T23:29:43.184Z,100702.47
2022-08-07T23:34:20.070Z,100699.84
2022-08-07T23:35:44.801Z,100700.09
2022-08-07T23:38:43.314Z,100691.84
2022-08-07T23:41:33.317Z,100694.44
2022-08-07T23:44:06.436Z,100689.19
2022-08-07T23:47:01.278Z,100698.72
2022-08-07T23:49:57.026Z,100693.66
2022-08-07T23:52:58.788Z,100694.87
2022-08-07T23:55:53.020Z,100686.88
2022-08-07T23:58:34.887Z,100690.72
